sensor_id;sensor_type;location;lat;lon;timestamp;temperature;humidity
2260;DHT22;333;48.800;9.530;2023-05-27T00:01:17;16.10;93.90
2260;DHT22;333;48.800;9.530;2023-05-27T00:03:45;16.00;94.10
2260;DHT22;333;48.800;9.530;2023-05-27T00:06:12;16.00;94.20
2260;DHT22;333;48.800;9.530;2023-05-27T00:08:39;15.90;94.60
2260;DHT22;333;48.800;9.530;2023-05-27T00:11:06;15.90;94.70
2260;DHT22;333;48.800;9.530;2023-05-27T00:13:35;15.80;95.30
2260;DHT22;333;48.800;9.530;2023-05-27T00:16:02;15.80;95.30
2260;DHT22;333;48.800;9.530;2023-05-27T00:18:29;15.70;95.30
2260;DHT22;333;48.800;9.530;2023-05-27T00:20:58;15.60;95.50
2260;DHT22;333;48.800;9.530;2023-05-27T00:23:25;15.60;95.80
2260;DHT22;333;48.800;9.530;2023-05-27T00:25:52;15.50;96.20
2260;DHT22;333;48.800;9.530;2023-05-27T00:28:19;15.50;96.30
2260;DHT22;333;48.800;9.530;2023-05-27T00:30:48;15.50;96.40
2260;DHT22;333;48.800;9.530;2023-05-27T00:33:15;15.50;96.70
2260;DHT22;333;48.800;9.530;2023-05-27T00:35:42;15.40;97.10
2260;DHT22;333;48.800;9.530;2023-05-27T00:38:09;15.30;97.30
2260;DHT22;333;48.800;9.530;2023-05-27T00:40:36;15.30;97.40
2260;DHT22;333;48.800;9.530;2023-05-27T00:43:05;15.20;97.80
2260;DHT22;333;48.800;9.530;2023-05-27T00:45:32;15.20;98.00
2260;DHT22;333;48.800;9.530;2023-05-27T00:48:02;15.10;97.90
2260;DHT22;333;48.800;9.530;2023-05-27T00:50:29;15.10;98.20
2260;DHT22;333;48.800;9.530;2023-05-27T00:52:57;15.10;98.40
2260;DHT22;333;48.800;9.530;2023-05-27T00:55:25;15.00;98.80
2260;DHT22;333;48.800;9.530;2023-05-27T00:57:53;15.00;98.70
2260;DHT22;333;48.800;9.530;2023-05-27T01:00:20;15.00;99.10
2260;DHT22;333;48.800;9.530;2023-05-27T01:02:48;14.90;99.30
2260;DHT22;333;48.800;9.530;2023-05-27T01:05:17;14.80;99.60
2260;DHT22;333;48.800;9.530;2023-05-27T01:08:01;14.80;99.60
2260;DHT22;333;48.800;9.530;2023-05-27T01:10:35;14.70;99.60
2260;DHT22;333;48.800;9.530;2023-05-27T01:13:10;14.70;99.60
2260;DHT22;333;48.800;9.530;2023-05-27T01:15:39;14.70;99.60
2260;DHT22;333;48.800;9.530;2023-05-27T01:18:07;14.60;99.60
2260;DHT22;333;48.800;9.530;2023-05-27T01:20:39;14.60;99.60
2260;DHT22;333;48.800;9.530;2023-05-27T01:23:08;14.50;99.60
2260;DHT22;333;48.800;9.530;2023-05-27T01:25:36;14.50;99.60
2260;DHT22;333;48.800;9.530;2023-05-27T01:28:03;14.60;99.60
2260;DHT22;333;48.800;9.530;2023-05-27T01:30:30;14.60;99.60
2260;DHT22;333;48.800;9.530;2023-05-27T01:33:01;14.60;99.60
2260;DHT22;333;48.800;9.530;2023-05-27T01:35:34;14.60;99.60
2260;DHT22;333;48.800;9.530;2023-05-27T01:38:04;14.50;99.60
2260;DHT22;333;48.800;9.530;2023-05-27T01:40:34;14.50;99.60
2260;DHT22;333;48.800;9.530;2023-05-27T01:43:01;14.50;99.60
2260;DHT22;333;48.800;9.530;2023-05-27T01:45:29;14.40;99.60
2260;DHT22;333;48.800;9.530;2023-05-27T01:47:56;14.30;99.60
2260;DHT22;333;48.800;9.530;2023-05-27T01:50:23;14.20;99.60
2260;DHT22;333;48.800;9.530;2023-05-27T01:52:51;14.20;99.60
2260;DHT22;333;48.800;9.530;2023-05-27T01:55:18;14.20;99.60
2260;DHT22;333;48.800;9.530;2023-05-27T01:57:46;14.20;99.60
2260;DHT22;333;48.800;9.530;2023-05-27T02:00:14;14.20;99.60
2260;DHT22;333;48.800;9.530;2023-05-27T02:02:41;14.20;99.60
2260;DHT22;333;48.800;9.530;2023-05-27T02:05:08;14.00;99.60
2260;DHT22;333;48.800;9.530;2023-05-27T02:07:35;14.00;99.60
2260;DHT22;333;48.800;9.530;2023-05-27T02:10:03;13.90;99.60
2260;DHT22;333;48.800;9.530;2023-05-27T02:12:30;13.80;99.60
2260;DHT22;333;48.800;9.530;2023-05-27T02:14:58;13.80;99.60
2260;DHT22;333;48.800;9.530;2023-05-27T02:17:26;13.80;99.60
2260;DHT22;333;48.800;9.530;2023-05-27T02:19:53;13.70;99.60
2260;DHT22;333;48.800;9.530;2023-05-27T02:22:20;13.70;99.60
2260;DHT22;333;48.800;9.530;2023-05-27T02:24:48;13.60;99.60
2260;DHT22;333;48.800;9.530;2023-05-27T02:27:15;13.50;99.60
2260;DHT22;333;48.800;9.530;2023-05-27T02:29:42;13.50;99.60
2260;DHT22;333;48.800;9.530;2023-05-27T02:32:10;13.50;99.60
2260;DHT22;333;48.800;9.530;2023-05-27T02:34:37;13.50;99.60
2260;DHT22;333;48.800;9.530;2023-05-27T02:37:06;13.40;99.60
2260;DHT22;333;48.800;9.530;2023-05-27T02:39:33;13.50;99.60
2260;DHT22;333;48.800;9.530;2023-05-27T02:42:00;13.40;99.60
2260;DHT22;333;48.800;9.530;2023-05-27T02:44:28;13.30;99.60
2260;DHT22;333;48.800;9.530;2023-05-27T02:46:55;13.20;99.60
2260;DHT22;333;48.800;9.530;2023-05-27T02:49:23;13.20;99.60
2260;DHT22;333;48.800;9.530;2023-05-27T02:51:50;13.20;99.60
2260;DHT22;333;48.800;9.530;2023-05-27T02:54:17;13.20;99.60
2260;DHT22;333;48.800;9.530;2023-05-27T02:56:44;13.10;99.60
2260;DHT22;333;48.800;9.530;2023-05-27T02:59:11;13.10;99.60
2260;DHT22;333;48.800;9.530;2023-05-27T03:01:38;13.00;99.60
2260;DHT22;333;48.800;9.530;2023-05-27T03:04:06;13.00;99.60
2260;DHT22;333;48.800;9.530;2023-05-27T03:06:34;13.00;99.60
2260;DHT22;333;48.800;9.530;2023-05-27T03:09:03;12.80;99.60
2260;DHT22;333;48.800;9.530;2023-05-27T03:11:30;12.60;99.60
2260;DHT22;333;48.800;9.530;2023-05-27T03:13:57;12.60;99.60
2260;DHT22;333;48.800;9.530;2023-05-27T03:16:24;12.60;99.60
2260;DHT22;333;48.800;9.530;2023-05-27T03:18:51;12.50;99.60
2260;DHT22;333;48.800;9.530;2023-05-27T03:21:18;12.50;99.60
2260;DHT22;333;48.800;9.530;2023-05-27T03:23:47;12.60;99.60
2260;DHT22;333;48.800;9.530;2023-05-27T03:26:14;12.50;99.60
2260;DHT22;333;48.800;9.530;2023-05-27T03:28:41;12.50;99.60
2260;DHT22;333;48.800;9.530;2023-05-27T03:31:08;12.50;99.60
2260;DHT22;333;48.800;9.530;2023-05-27T03:33:38;12.50;99.60
2260;DHT22;333;48.800;9.530;2023-05-27T03:36:06;12.40;99.60
2260;DHT22;333;48.800;9.530;2023-05-27T03:38:33;12.40;99.60
2260;DHT22;333;48.800;9.530;2023-05-27T03:41:02;12.40;99.60
2260;DHT22;333;48.800;9.530;2023-05-27T03:43:29;12.20;99.60
2260;DHT22;333;48.800;9.530;2023-05-27T03:45:56;12.20;99.60
2260;DHT22;333;48.800;9.530;2023-05-27T03:48:23;12.30;99.60
2260;DHT22;333;48.800;9.530;2023-05-27T03:50:50;12.30;99.60
2260;DHT22;333;48.800;9.530;2023-05-27T03:53:17;12.40;99.60
2260;DHT22;333;48.800;9.530;2023-05-27T03:55:43;12.40;99.60
2260;DHT22;333;48.800;9.530;2023-05-27T03:58:12;12.40;99.60
2260;DHT22;333;48.800;9.530;2023-05-27T04:00:39;12.60;99.60
2260;DHT22;333;48.800;9.530;2023-05-27T04:03:07;12.50;99.60
2260;DHT22;333;48.800;9.530;2023-05-27T04:05:34;12.50;99.60
2260;DHT22;333;48.800;9.530;2023-05-27T04:08:03;12.70;99.60
2260;DHT22;333;48.800;9.530;2023-05-27T04:10:30;12.60;99.60
2260;DHT22;333;48.800;9.530;2023-05-27T04:12:57;12.60;99.60
2260;DHT22;333;48.800;9.530;2023-05-27T04:15:25;12.70;99.60
2260;DHT22;333;48.800;9.530;2023-05-27T04:17:55;12.80;99.60
2260;DHT22;333;48.800;9.530;2023-05-27T04:20:22;12.80;99.60
2260;DHT22;333;48.800;9.530;2023-05-27T04:22:49;12.70;99.60
2260;DHT22;333;48.800;9.530;2023-05-27T04:25:16;12.70;99.60
2260;DHT22;333;48.800;9.530;2023-05-27T04:27:43;12.70;99.60
2260;DHT22;333;48.800;9.530;2023-05-27T04:30:10;12.80;99.60
2260;DHT22;333;48.800;9.530;2023-05-27T04:32:39;13.00;99.60
2260;DHT22;333;48.800;9.530;2023-05-27T04:35:08;13.10;99.60
2260;DHT22;333;48.800;9.530;2023-05-27T04:37:35;13.20;99.60
2260;DHT22;333;48.800;9.530;2023-05-27T04:40:03;13.20;99.60
2260;DHT22;333;48.800;9.530;2023-05-27T04:42:31;13.30;99.60
2260;DHT22;333;48.800;9.530;2023-05-27T04:45:02;13.40;99.60
2260;DHT22;333;48.800;9.530;2023-05-27T04:47:29;13.50;99.60
2260;DHT22;333;48.800;9.530;2023-05-27T04:49:58;13.50;99.60
2260;DHT22;333;48.800;9.530;2023-05-27T04:52:28;13.60;99.60
2260;DHT22;333;48.800;9.530;2023-05-27T04:54:55;13.60;99.60
2260;DHT22;333;48.800;9.530;2023-05-27T04:57:22;13.60;99.60
2260;DHT22;333;48.800;9.530;2023-05-27T04:59:49;13.70;99.60
2260;DHT22;333;48.800;9.530;2023-05-27T05:02:44;13.70;99.60
2260;DHT22;333;48.800;9.530;2023-05-27T05:05:14;13.70;99.60
2260;DHT22;333;48.800;9.530;2023-05-27T05:07:42;13.70;99.60
2260;DHT22;333;48.800;9.530;2023-05-27T05:10:10;13.90;99.60
2260;DHT22;333;48.800;9.530;2023-05-27T05:12:37;13.90;99.60
2260;DHT22;333;48.800;9.530;2023-05-27T05:15:06;13.90;99.60
2260;DHT22;333;48.800;9.530;2023-05-27T05:17:33;14.00;99.60
2260;DHT22;333;48.800;9.530;2023-05-27T05:20:00;14.10;99.60
2260;DHT22;333;48.800;9.530;2023-05-27T05:22:30;14.20;99.60
2260;DHT22;333;48.800;9.530;2023-05-27T05:24:57;14.30;99.60
2260;DHT22;333;48.800;9.530;2023-05-27T05:27:24;14.40;99.60
2260;DHT22;333;48.800;9.530;2023-05-27T05:29:51;14.50;99.60
2260;DHT22;333;48.800;9.530;2023-05-27T05:32:19;14.50;99.60
2260;DHT22;333;48.800;9.530;2023-05-27T05:34:46;14.60;99.60
2260;DHT22;333;48.800;9.530;2023-05-27T05:37:13;14.80;99.60
2260;DHT22;333;48.800;9.530;2023-05-27T05:39:42;14.90;99.60
2260;DHT22;333;48.800;9.530;2023-05-27T05:42:09;15.00;99.60
2260;DHT22;333;48.800;9.530;2023-05-27T05:44:36;14.90;99.60
2260;DHT22;333;48.800;9.530;2023-05-27T05:47:05;15.00;99.60
2260;DHT22;333;48.800;9.530;2023-05-27T05:49:32;15.10;99.60
2260;DHT22;333;48.800;9.530;2023-05-27T05:51:59;15.20;99.60
2260;DHT22;333;48.800;9.530;2023-05-27T05:54:26;15.30;99.60
2260;DHT22;333;48.800;9.530;2023-05-27T05:56:54;15.50;99.60
2260;DHT22;333;48.800;9.530;2023-05-27T05:59:21;15.50;99.60
2260;DHT22;333;48.800;9.530;2023-05-27T06:01:48;15.70;99.60
2260;DHT22;333;48.800;9.530;2023-05-27T06:04:15;15.80;99.60
2260;DHT22;333;48.800;9.530;2023-05-27T06:06:42;15.80;99.60
2260;DHT22;333;48.800;9.530;2023-05-27T06:09:10;15.90;99.60
2260;DHT22;333;48.800;9.530;2023-05-27T06:11:37;15.90;99.60
2260;DHT22;333;48.800;9.530;2023-05-27T06:14:05;16.00;99.60
2260;DHT22;333;48.800;9.530;2023-05-27T06:16:32;16.00;99.60
2260;DHT22;333;48.800;9.530;2023-05-27T06:19:01;16.10;99.60
2260;DHT22;333;48.800;9.530;2023-05-27T06:21:28;16.10;99.50
2260;DHT22;333;48.800;9.530;2023-05-27T06:23:57;16.00;99.60
2260;DHT22;333;48.800;9.530;2023-05-27T06:26:25;16.20;99.60
2260;DHT22;333;48.800;9.530;2023-05-27T06:28:53;16.20;99.60
2260;DHT22;333;48.800;9.530;2023-05-27T06:31:21;16.30;99.10
2260;DHT22;333;48.800;9.530;2023-05-27T06:33:51;16.30;99.30
2260;DHT22;333;48.800;9.530;2023-05-27T06:36:18;16.50;99.60
2260;DHT22;333;48.800;9.530;2023-05-27T06:38:45;16.70;99.40
2260;DHT22;333;48.800;9.530;2023-05-27T06:41:12;16.80;98.10
2260;DHT22;333;48.800;9.530;2023-05-27T06:43:39;17.00;98.30
2260;DHT22;333;48.800;9.530;2023-05-27T06:46:07;17.10;98.40
2260;DHT22;333;48.800;9.530;2023-05-27T06:48:35;17.20;97.10
2260;DHT22;333;48.800;9.530;2023-05-27T06:51:02;17.30;96.00
2260;DHT22;333;48.800;9.530;2023-05-27T06:53:29;17.20;95.40
2260;DHT22;333;48.800;9.530;2023-05-27T06:55:57;17.10;96.30
2260;DHT22;333;48.800;9.530;2023-05-27T06:58:24;17.30;97.60
2260;DHT22;333;48.800;9.530;2023-05-27T07:00:51;17.40;95.80
2260;DHT22;333;48.800;9.530;2023-05-27T07:03:18;17.50;95.60
2260;DHT22;333;48.800;9.530;2023-05-27T07:05:46;17.50;96.40
2260;DHT22;333;48.800;9.530;2023-05-27T07:08:13;17.70;96.10
2260;DHT22;333;48.800;9.530;2023-05-27T07:10:40;17.90;94.10
2260;DHT22;333;48.800;9.530;2023-05-27T07:13:08;18.10;94.60
2260;DHT22;333;48.800;9.530;2023-05-27T07:15:36;18.00;93.60
2260;DHT22;333;48.800;9.530;2023-05-27T07:18:04;17.80;94.10
2260;DHT22;333;48.800;9.530;2023-05-27T07:20:32;17.70;93.20
2260;DHT22;333;48.800;9.530;2023-05-27T07:23:01;17.80;93.60
2260;DHT22;333;48.800;9.530;2023-05-27T07:25:28;18.00;94.20
2260;DHT22;333;48.800;9.530;2023-05-27T07:27:59;18.20;93.00
2260;DHT22;333;48.800;9.530;2023-05-27T07:30:27;18.10;92.60
2260;DHT22;333;48.800;9.530;2023-05-27T07:32:54;18.20;93.10
2260;DHT22;333;48.800;9.530;2023-05-27T07:35:24;18.30;93.00
2260;DHT22;333;48.800;9.530;2023-05-27T07:38:06;18.40;92.50
2260;DHT22;333;48.800;9.530;2023-05-27T07:40:33;18.30;92.40
2260;DHT22;333;48.800;9.530;2023-05-27T07:43:00;18.40;93.80
2260;DHT22;333;48.800;9.530;2023-05-27T07:45:28;18.80;94.70
2260;DHT22;333;48.800;9.530;2023-05-27T07:47:56;19.10;91.30
2260;DHT22;333;48.800;9.530;2023-05-27T07:50:23;19.00;91.90
2260;DHT22;333;48.800;9.530;2023-05-27T07:52:50;19.00;91.10
2260;DHT22;333;48.800;9.530;2023-05-27T07:55:19;19.10;92.60
2260;DHT22;333;48.800;9.530;2023-05-27T07:57:46;19.30;91.50
2260;DHT22;333;48.800;9.530;2023-05-27T08:00:14;19.30;90.50
2260;DHT22;333;48.800;9.530;2023-05-27T08:02:41;19.30;92.50
2260;DHT22;333;48.800;9.530;2023-05-27T08:05:14;19.20;91.50
2260;DHT22;333;48.800;9.530;2023-05-27T08:07:42;19.50;92.50
2260;DHT22;333;48.800;9.530;2023-05-27T08:10:10;19.50;89.20
2260;DHT22;333;48.800;9.530;2023-05-27T08:12:41;19.50;90.20
2260;DHT22;333;48.800;9.530;2023-05-27T08:15:10;19.70;90.80
2260;DHT22;333;48.800;9.530;2023-05-27T08:17:37;19.70;89.60
2260;DHT22;333;48.800;9.530;2023-05-27T08:20:05;19.90;89.60
2260;DHT22;333;48.800;9.530;2023-05-27T08:22:33;20.10;91.10
2260;DHT22;333;48.800;9.530;2023-05-27T08:25:01;20.40;90.70
2260;DHT22;333;48.800;9.530;2023-05-27T08:27:45;20.60;89.00
2260;DHT22;333;48.800;9.530;2023-05-27T08:30:14;20.70;88.40
2260;DHT22;333;48.800;9.530;2023-05-27T08:32:42;20.70;87.20
2260;DHT22;333;48.800;9.530;2023-05-27T08:35:09;20.60;87.60
2260;DHT22;333;48.800;9.530;2023-05-27T08:37:36;20.50;88.20
2260;DHT22;333;48.800;9.530;2023-05-27T08:40:06;20.50;87.50
2260;DHT22;333;48.800;9.530;2023-05-27T08:42:33;20.50;88.00
2260;DHT22;333;48.800;9.530;2023-05-27T08:45:02;20.60;88.00
2260;DHT22;333;48.800;9.530;2023-05-27T08:47:29;20.40;88.00
2260;DHT22;333;48.800;9.530;2023-05-27T08:49:57;20.50;87.80
2260;DHT22;333;48.800;9.530;2023-05-27T08:52:27;20.80;89.90
2260;DHT22;333;48.800;9.530;2023-05-27T08:54:56;21.00;86.30
2260;DHT22;333;48.800;9.530;2023-05-27T08:57:30;21.10;87.30
2260;DHT22;333;48.800;9.530;2023-05-27T08:59:58;21.30;85.10
2260;DHT22;333;48.800;9.530;2023-05-27T09:02:27;21.50;87.00
2260;DHT22;333;48.800;9.530;2023-05-27T09:04:55;21.60;86.80
2260;DHT22;333;48.800;9.530;2023-05-27T09:07:23;21.40;85.60
2260;DHT22;333;48.800;9.530;2023-05-27T09:09:57;21.40;87.60
2260;DHT22;333;48.800;9.530;2023-05-27T09:12:24;21.50;85.30
2260;DHT22;333;48.800;9.530;2023-05-27T09:14:52;21.70;87.30
2260;DHT22;333;48.800;9.530;2023-05-27T09:17:22;22.20;86.90
2260;DHT22;333;48.800;9.530;2023-05-27T09:19:52;22.60;83.00
2260;DHT22;333;48.800;9.530;2023-05-27T09:22:23;22.60;83.30
2260;DHT22;333;48.800;9.530;2023-05-27T09:24:52;22.90;84.70
2260;DHT22;333;48.800;9.530;2023-05-27T09:27:24;22.80;85.50
2260;DHT22;333;48.800;9.530;2023-05-27T09:29:51;23.10;82.20
2260;DHT22;333;48.800;9.530;2023-05-27T09:32:24;23.40;82.00
2260;DHT22;333;48.800;9.530;2023-05-27T09:34:54;23.50;81.50
2260;DHT22;333;48.800;9.530;2023-05-27T09:37:24;23.90;80.40
2260;DHT22;333;48.800;9.530;2023-05-27T09:39:51;24.00;79.90
2260;DHT22;333;48.800;9.530;2023-05-27T09:42:18;24.10;82.20
2260;DHT22;333;48.800;9.530;2023-05-27T09:44:46;23.80;78.60
2260;DHT22;333;48.800;9.530;2023-05-27T09:47:16;23.50;80.50
2260;DHT22;333;48.800;9.530;2023-05-27T09:49:45;23.70;79.70
2260;DHT22;333;48.800;9.530;2023-05-27T09:52:17;23.30;80.70
2260;DHT22;333;48.800;9.530;2023-05-27T09:54:46;22.90;82.00
2260;DHT22;333;48.800;9.530;2023-05-27T09:57:15;22.80;82.50
2260;DHT22;333;48.800;9.530;2023-05-27T09:59:43;23.10;82.30
2260;DHT22;333;48.800;9.530;2023-05-27T10:02:15;22.70;81.10
2260;DHT22;333;48.800;9.530;2023-05-27T10:04:44;23.00;81.90
2260;DHT22;333;48.800;9.530;2023-05-27T10:07:17;23.70;80.00
2260;DHT22;333;48.800;9.530;2023-05-27T10:09:46;23.60;80.70
2260;DHT22;333;48.800;9.530;2023-05-27T10:12:14;23.20;80.10
2260;DHT22;333;48.800;9.530;2023-05-27T10:14:42;23.20;80.50
2260;DHT22;333;48.800;9.530;2023-05-27T10:17:12;23.50;80.90
2260;DHT22;333;48.800;9.530;2023-05-27T10:19:52;23.70;79.40
2260;DHT22;333;48.800;9.530;2023-05-27T10:22:22;23.60;82.20
2260;DHT22;333;48.800;9.530;2023-05-27T10:24:49;23.90;78.50
2260;DHT22;333;48.800;9.530;2023-05-27T10:27:19;23.80;78.90
2260;DHT22;333;48.800;9.530;2023-05-27T10:29:57;24.40;78.00
2260;DHT22;333;48.800;9.530;2023-05-27T10:32:24;24.50;75.10
2260;DHT22;333;48.800;9.530;2023-05-27T10:34:52;24.50;75.30
2260;DHT22;333;48.800;9.530;2023-05-27T10:37:22;24.50;75.10
2260;DHT22;333;48.800;9.530;2023-05-27T10:39:56;24.60;74.40
2260;DHT22;333;48.800;9.530;2023-05-27T10:42:24;24.60;76.40
2260;DHT22;333;48.800;9.530;2023-05-27T10:45:03;24.80;74.10
2260;DHT22;333;48.800;9.530;2023-05-27T10:47:34;24.40;75.00
2260;DHT22;333;48.800;9.530;2023-05-27T10:50:10;23.90;76.40
2260;DHT22;333;48.800;9.530;2023-05-27T10:52:40;24.10;77.80
2260;DHT22;333;48.800;9.530;2023-05-27T10:55:07;24.60;75.60
2260;DHT22;333;48.800;9.530;2023-05-27T10:57:35;24.60;75.40
2260;DHT22;333;48.800;9.530;2023-05-27T11:00:03;24.60;74.90
2260;DHT22;333;48.800;9.530;2023-05-27T11:02:36;24.50;75.50
2260;DHT22;333;48.800;9.530;2023-05-27T11:05:10;24.60;73.90
2260;DHT22;333;48.800;9.530;2023-05-27T11:07:39;24.40;73.60
2260;DHT22;333;48.800;9.530;2023-05-27T11:10:08;24.30;75.10
2260;DHT22;333;48.800;9.530;2023-05-27T11:12:35;25.00;75.10
2260;DHT22;333;48.800;9.530;2023-05-27T11:15:03;25.20;73.50
2260;DHT22;333;48.800;9.530;2023-05-27T11:17:30;25.10;74.40
2260;DHT22;333;48.800;9.530;2023-05-27T11:19:58;24.90;75.00
2260;DHT22;333;48.800;9.530;2023-05-27T11:22:25;25.00;73.50
2260;DHT22;333;48.800;9.530;2023-05-27T11:24:57;24.40;74.60
2260;DHT22;333;48.800;9.530;2023-05-27T11:27:32;24.60;74.70
2260;DHT22;333;48.800;9.530;2023-05-27T11:30:06;24.40;73.80
2260;DHT22;333;48.800;9.530;2023-05-27T11:32:35;23.80;74.40
2260;DHT22;333;48.800;9.530;2023-05-27T11:35:03;23.90;75.70
2260;DHT22;333;48.800;9.530;2023-05-27T11:37:31;24.20;73.70
2260;DHT22;333;48.800;9.530;2023-05-27T11:40:00;24.00;75.50
2260;DHT22;333;48.800;9.530;2023-05-27T11:42:29;24.80;75.80
2260;DHT22;333;48.800;9.530;2023-05-27T11:44:58;25.10;73.40
2260;DHT22;333;48.800;9.530;2023-05-27T11:47:25;25.50;72.50
2260;DHT22;333;48.800;9.530;2023-05-27T11:49:52;25.50;71.70
2260;DHT22;333;48.800;9.530;2023-05-27T11:52:20;25.30;72.20
2260;DHT22;333;48.800;9.530;2023-05-27T11:54:50;25.60;71.70
2260;DHT22;333;48.800;9.530;2023-05-27T11:57:19;25.60;72.50
2260;DHT22;333;48.800;9.530;2023-05-27T11:59:46;25.90;70.80
2260;DHT22;333;48.800;9.530;2023-05-27T12:02:13;25.80;71.80
2260;DHT22;333;48.800;9.530;2023-05-27T12:04:41;26.20;70.50
2260;DHT22;333;48.800;9.530;2023-05-27T12:07:09;26.50;70.00
2260;DHT22;333;48.800;9.530;2023-05-27T12:09:36;26.30;70.50
2260;DHT22;333;48.800;9.530;2023-05-27T12:12:03;26.20;71.50
2260;DHT22;333;48.800;9.530;2023-05-27T12:14:32;26.30;70.40
2260;DHT22;333;48.800;9.530;2023-05-27T12:16:59;26.50;70.80
2260;DHT22;333;48.800;9.530;2023-05-27T12:19:26;26.20;68.60
2260;DHT22;333;48.800;9.530;2023-05-27T12:21:54;26.20;69.30
2260;DHT22;333;48.800;9.530;2023-05-27T12:24:21;26.20;70.00
2260;DHT22;333;48.800;9.530;2023-05-27T12:26:48;26.10;68.70
2260;DHT22;333;48.800;9.530;2023-05-27T12:29:15;26.40;69.40
2260;DHT22;333;48.800;9.530;2023-05-27T12:31:43;26.70;69.50
2260;DHT22;333;48.800;9.530;2023-05-27T12:34:11;27.00;67.90
2260;DHT22;333;48.800;9.530;2023-05-27T12:36:38;27.50;68.70
2260;DHT22;333;48.800;9.530;2023-05-27T12:39:05;27.40;66.70
2260;DHT22;333;48.800;9.530;2023-05-27T12:41:32;26.90;66.40
2260;DHT22;333;48.800;9.530;2023-05-27T12:43:59;27.20;67.80
2260;DHT22;333;48.800;9.530;2023-05-27T12:46:26;27.10;65.30
2260;DHT22;333;48.800;9.530;2023-05-27T12:48:54;26.20;67.00
2260;DHT22;333;48.800;9.530;2023-05-27T12:51:21;26.60;67.60
2260;DHT22;333;48.800;9.530;2023-05-27T12:53:50;26.80;68.20
2260;DHT22;333;48.800;9.530;2023-05-27T12:56:17;27.10;67.70
2260;DHT22;333;48.800;9.530;2023-05-27T12:58:44;27.10;64.60
2260;DHT22;333;48.800;9.530;2023-05-27T13:01:11;26.60;66.10
2260;DHT22;333;48.800;9.530;2023-05-27T13:03:38;27.20;63.60
2260;DHT22;333;48.800;9.530;2023-05-27T13:06:08;25.80;62.20
2260;DHT22;333;48.800;9.530;2023-05-27T13:08:35;25.20;63.90
2260;DHT22;333;48.800;9.530;2023-05-27T13:11:02;25.30;64.00
2260;DHT22;333;48.800;9.530;2023-05-27T13:13:29;25.60;62.20
2260;DHT22;333;48.800;9.530;2023-05-27T13:15:56;26.50;62.10
2260;DHT22;333;48.800;9.530;2023-05-27T13:18:23;26.60;62.30
2260;DHT22;333;48.800;9.530;2023-05-27T13:20:50;26.70;62.90
2260;DHT22;333;48.800;9.530;2023-05-27T13:23:18;26.80;61.60
2260;DHT22;333;48.800;9.530;2023-05-27T13:25:46;26.20;61.40
2260;DHT22;333;48.800;9.530;2023-05-27T13:28:12;26.10;61.40
2260;DHT22;333;48.800;9.530;2023-05-27T13:30:40;25.80;60.20
2260;DHT22;333;48.800;9.530;2023-05-27T13:33:07;26.20;60.50
2260;DHT22;333;48.800;9.530;2023-05-27T13:35:34;26.00;62.10
2260;DHT22;333;48.800;9.530;2023-05-27T13:38:01;26.70;58.60
2260;DHT22;333;48.800;9.530;2023-05-27T13:40:30;26.20;59.90
2260;DHT22;333;48.800;9.530;2023-05-27T13:42:57;26.80;59.70
2260;DHT22;333;48.800;9.530;2023-05-27T13:45:24;27.10;59.30
2260;DHT22;333;48.800;9.530;2023-05-27T13:47:53;26.90;59.40
2260;DHT22;333;48.800;9.530;2023-05-27T13:50:20;27.40;58.80
2260;DHT22;333;48.800;9.530;2023-05-27T13:52:47;27.20;57.80
2260;DHT22;333;48.800;9.530;2023-05-27T13:55:14;27.80;59.30
2260;DHT22;333;48.800;9.530;2023-05-27T13:57:42;27.60;56.80
2260;DHT22;333;48.800;9.530;2023-05-27T14:00:11;26.50;58.30
2260;DHT22;333;48.800;9.530;2023-05-27T14:02:39;26.20;59.40
2260;DHT22;333;48.800;9.530;2023-05-27T14:05:07;27.30;59.70
2260;DHT22;333;48.800;9.530;2023-05-27T14:07:39;27.70;60.10
2260;DHT22;333;48.800;9.530;2023-05-27T14:10:08;27.80;58.10
2260;DHT22;333;48.800;9.530;2023-05-27T14:12:35;26.30;59.10
2260;DHT22;333;48.800;9.530;2023-05-27T14:15:04;26.10;58.70
2260;DHT22;333;48.800;9.530;2023-05-27T14:17:31;26.00;62.00
2260;DHT22;333;48.800;9.530;2023-05-27T14:19:58;26.70;60.40
2260;DHT22;333;48.800;9.530;2023-05-27T14:22:26;27.00;59.80
2260;DHT22;333;48.800;9.530;2023-05-27T14:24:53;26.40;60.10
2260;DHT22;333;48.800;9.530;2023-05-27T14:27:20;27.10;60.10
2260;DHT22;333;48.800;9.530;2023-05-27T14:29:47;27.50;59.40
2260;DHT22;333;48.800;9.530;2023-05-27T14:32:17;28.30;59.10
2260;DHT22;333;48.800;9.530;2023-05-27T14:34:44;28.90;57.20
2260;DHT22;333;48.800;9.530;2023-05-27T14:37:11;28.80;55.80
2260;DHT22;333;48.800;9.530;2023-05-27T14:39:38;27.30;58.00
2260;DHT22;333;48.800;9.530;2023-05-27T14:42:05;27.90;58.00
2260;DHT22;333;48.800;9.530;2023-05-27T14:44:35;28.10;59.90
2260;DHT22;333;48.800;9.530;2023-05-27T14:47:02;28.40;59.20
2260;DHT22;333;48.800;9.530;2023-05-27T14:49:31;28.60;60.00
2260;DHT22;333;48.800;9.530;2023-05-27T14:51:58;28.80;58.20
2260;DHT22;333;48.800;9.530;2023-05-27T14:54:25;29.20;56.90
2260;DHT22;333;48.800;9.530;2023-05-27T14:56:52;29.10;60.40
2260;DHT22;333;48.800;9.530;2023-05-27T14:59:19;28.80;58.20
2260;DHT22;333;48.800;9.530;2023-05-27T15:01:47;29.30;58.60
2260;DHT22;333;48.800;9.530;2023-05-27T15:04:14;28.70;58.30
2260;DHT22;333;48.800;9.530;2023-05-27T15:06:42;27.90;58.50
2260;DHT22;333;48.800;9.530;2023-05-27T15:09:09;27.90;60.30
2260;DHT22;333;48.800;9.530;2023-05-27T15:11:38;28.50;59.40
2260;DHT22;333;48.800;9.530;2023-05-27T15:14:04;28.90;59.00
2260;DHT22;333;48.800;9.530;2023-05-27T15:16:31;29.10;58.80
2260;DHT22;333;48.800;9.530;2023-05-27T15:18:59;29.00;57.70
2260;DHT22;333;48.800;9.530;2023-05-27T15:21:26;28.70;56.90
2260;DHT22;333;48.800;9.530;2023-05-27T15:23:54;28.40;57.30
2260;DHT22;333;48.800;9.530;2023-05-27T15:26:21;27.90;59.40
2260;DHT22;333;48.800;9.530;2023-05-27T15:28:48;28.50;57.80
2260;DHT22;333;48.800;9.530;2023-05-27T15:31:15;28.80;57.60
2260;DHT22;333;48.800;9.530;2023-05-27T15:33:42;29.00;57.20
2260;DHT22;333;48.800;9.530;2023-05-27T15:36:09;29.10;57.20
2260;DHT22;333;48.800;9.530;2023-05-27T15:38:37;29.30;58.10
2260;DHT22;333;48.800;9.530;2023-05-27T15:41:05;28.20;57.80
2260;DHT22;333;48.800;9.530;2023-05-27T15:43:32;27.10;59.90
2260;DHT22;333;48.800;9.530;2023-05-27T15:45:59;27.20;60.00
2260;DHT22;333;48.800;9.530;2023-05-27T15:48:26;28.00;59.20
2260;DHT22;333;48.800;9.530;2023-05-27T15:50:54;28.80;58.20
2260;DHT22;333;48.800;9.530;2023-05-27T15:53:21;28.50;56.90
2260;DHT22;333;48.800;9.530;2023-05-27T15:55:48;27.80;57.90
2260;DHT22;333;48.800;9.530;2023-05-27T15:58:17;28.30;59.40
2260;DHT22;333;48.800;9.530;2023-05-27T16:00:44;28.80;58.40
2260;DHT22;333;48.800;9.530;2023-05-27T16:03:11;29.40;56.20
2260;DHT22;333;48.800;9.530;2023-05-27T16:05:38;28.60;57.80
2260;DHT22;333;48.800;9.530;2023-05-27T16:08:05;28.20;57.10
2260;DHT22;333;48.800;9.530;2023-05-27T16:10:32;28.60;57.30
2260;DHT22;333;48.800;9.530;2023-05-27T16:12:59;28.90;57.80
2260;DHT22;333;48.800;9.530;2023-05-27T16:15:27;28.80;56.30
2260;DHT22;333;48.800;9.530;2023-05-27T16:17:54;28.60;57.80
2260;DHT22;333;48.800;9.530;2023-05-27T16:20:22;28.60;58.00
2260;DHT22;333;48.800;9.530;2023-05-27T16:22:49;28.20;57.00